sensor_id;sensor_type;location;lat;lon;timestamp;P1;durP1;ratioP1;P2;durP2;ratioP2
23082;SDS011;11709;52.420;10.538;2022-10-16T00:00:18;5.05;;;1.20;;
23082;SDS011;11709;52.420;10.538;2022-10-16T00:04:21;13.03;;;6.08;;
23082;SDS011;11709;52.420;10.538;2022-10-16T00:08:23;5.28;;;1.20;;
23082;SDS011;11709;52.420;10.538;2022-10-16T00:12:26;4.17;;;1.32;;
23082;SDS011;11709;52.420;10.538;2022-10-16T00:16:28;5.10;;;2.05;;
23082;SDS011;11709;52.420;10.538;2022-10-16T00:20:33;2.98;;;1.85;;
23082;SDS011;11709;52.420;10.538;2022-10-16T00:24:37;6.55;;;1.80;;
23082;SDS011;11709;52.420;10.538;2022-10-16T00:28:40;2.55;;;1.37;;
23082;SDS011;11709;52.420;10.538;2022-10-16T00:32:42;4.83;;;1.80;;
23082;SDS011;11709;52.420;10.538;2022-10-16T00:36:45;2.90;;;1.27;;
23082;SDS011;11709;52.420;10.538;2022-10-16T00:40:47;2.12;;;1.27;;
23082;SDS011;11709;52.420;10.538;2022-10-16T00:44:51;3.47;;;1.60;;
23082;SDS011;11709;52.420;10.538;2022-10-16T00:53:00;2.65;;;1.62;;
23082;SDS011;11709;52.420;10.538;2022-10-16T00:57:05;3.35;;;1.35;;
23082;SDS011;11709;52.420;10.538;2022-10-16T01:01:08;2.77;;;1.72;;
23082;SDS011;11709;52.420;10.538;2022-10-16T01:05:10;2.72;;;1.57;;
23082;SDS011;11709;52.420;10.538;2022-10-16T01:09:17;2.25;;;1.25;;
23082;SDS011;11709;52.420;10.538;2022-10-16T01:13:32;2.27;;;1.52;;
23082;SDS011;11709;52.420;10.538;2022-10-16T01:21:55;1.75;;;1.65;;
23082;SDS011;11709;52.420;10.538;2022-10-16T01:30:21;3.47;;;1.60;;
23082;SDS011;11709;52.420;10.538;2022-10-16T01:34:25;2.40;;;1.67;;
23082;SDS011;11709;52.420;10.538;2022-10-16T01:38:35;2.87;;;1.85;;
23082;SDS011;11709;52.420;10.538;2022-10-16T01:42:46;3.72;;;2.08;;
23082;SDS011;11709;52.420;10.538;2022-10-16T01:46:46;4.05;;;1.72;;
23082;SDS011;11709;52.420;10.538;2022-10-16T01:50:53;2.67;;;1.90;;
23082;SDS011;11709;52.420;10.538;2022-10-16T01:54:56;4.28;;;2.27;;
23082;SDS011;11709;52.420;10.538;2022-10-16T01:59:09;2.83;;;1.90;;
23082;SDS011;11709;52.420;10.538;2022-10-16T02:03:13;3.02;;;1.80;;
23082;SDS011;11709;52.420;10.538;2022-10-16T02:07:18;5.85;;;1.87;;
23082;SDS011;11709;52.420;10.538;2022-10-16T02:11:20;2.10;;;1.75;;
23082;SDS011;11709;52.420;10.538;2022-10-16T02:15:23;2.25;;;1.85;;
23082;SDS011;11709;52.420;10.538;2022-10-16T02:19:25;1.82;;;1.60;;
23082;SDS011;11709;52.420;10.538;2022-10-16T02:23:40;4.17;;;2.35;;
23082;SDS011;11709;52.420;10.538;2022-10-16T02:32:01;2.22;;;2.02;;
23082;SDS011;11709;52.420;10.538;2022-10-16T02:36:06;3.42;;;2.17;;
23082;SDS011;11709;52.420;10.538;2022-10-16T02:40:09;4.55;;;2.25;;
23082;SDS011;11709;52.420;10.538;2022-10-16T02:44:12;2.52;;;2.30;;
23082;SDS011;11709;52.420;10.538;2022-10-16T02:48:15;6.62;;;2.12;;
23082;SDS011;11709;52.420;10.538;2022-10-16T02:52:17;3.90;;;1.90;;
23082;SDS011;11709;52.420;10.538;2022-10-16T02:56:20;3.10;;;2.42;;
23082;SDS011;11709;52.420;10.538;2022-10-16T03:00:23;3.90;;;1.85;;
23082;SDS011;11709;52.420;10.538;2022-10-16T03:04:25;6.30;;;2.22;;
23082;SDS011;11709;52.420;10.538;2022-10-16T03:08:28;6.78;;;2.40;;
23082;SDS011;11709;52.420;10.538;2022-10-16T03:12:30;2.75;;;2.15;;
23082;SDS011;11709;52.420;10.538;2022-10-16T03:16:33;3.52;;;2.05;;
23082;SDS011;11709;52.420;10.538;2022-10-16T03:20:35;3.60;;;2.30;;
23082;SDS011;11709;52.420;10.538;2022-10-16T03:24:38;3.62;;;2.30;;
23082;SDS011;11709;52.420;10.538;2022-10-16T03:28:40;5.08;;;2.20;;
23082;SDS011;11709;52.420;10.538;2022-10-16T03:32:45;2.12;;;1.95;;
23082;SDS011;11709;52.420;10.538;2022-10-16T03:36:48;4.45;;;2.20;;
23082;SDS011;11709;52.420;10.538;2022-10-16T03:40:50;5.53;;;2.20;;
23082;SDS011;11709;52.420;10.538;2022-10-16T03:44:53;4.37;;;2.05;;
23082;SDS011;11709;52.420;10.538;2022-10-16T03:48:55;3.62;;;1.85;;
23082;SDS011;11709;52.420;10.538;2022-10-16T03:52:58;6.87;;;2.10;;
23082;SDS011;11709;52.420;10.538;2022-10-16T03:57:00;5.87;;;2.00;;
23082;SDS011;11709;52.420;10.538;2022-10-16T04:01:03;2.65;;;1.95;;
23082;SDS011;11709;52.420;10.538;2022-10-16T04:05:06;4.45;;;2.27;;
23082;SDS011;11709;52.420;10.538;2022-10-16T04:09:08;3.12;;;2.17;;
23082;SDS011;11709;52.420;10.538;2022-10-16T04:13:11;3.47;;;2.10;;
23082;SDS011;11709;52.420;10.538;2022-10-16T04:17:14;5.20;;;2.58;;
23082;SDS011;11709;52.420;10.538;2022-10-16T04:21:17;5.15;;;2.58;;
23082;SDS011;11709;52.420;10.538;2022-10-16T04:25:20;5.30;;;2.65;;
23082;SDS011;11709;52.420;10.538;2022-10-16T04:29:22;4.22;;;2.33;;
23082;SDS011;11709;52.420;10.538;2022-10-16T04:33:25;6.17;;;2.33;;
23082;SDS011;11709;52.420;10.538;2022-10-16T04:37:27;5.80;;;3.00;;
23082;SDS011;11709;52.420;10.538;2022-10-16T04:41:30;5.95;;;2.90;;
23082;SDS011;11709;52.420;10.538;2022-10-16T04:45:32;3.47;;;2.52;;
23082;SDS011;11709;52.420;10.538;2022-10-16T04:49:35;3.40;;;2.58;;
23082;SDS011;11709;52.420;10.538;2022-10-16T04:53:37;5.15;;;2.70;;
23082;SDS011;11709;52.420;10.538;2022-10-16T04:57:40;4.58;;;2.75;;
23082;SDS011;11709;52.420;10.538;2022-10-16T05:01:42;6.37;;;2.70;;
23082;SDS011;11709;52.420;10.538;2022-10-16T05:05:45;5.15;;;3.00;;
23082;SDS011;11709;52.420;10.538;2022-10-16T05:09:48;5.00;;;2.92;;
23082;SDS011;11709;52.420;10.538;2022-10-16T05:13:51;4.25;;;2.95;;
23082;SDS011;11709;52.420;10.538;2022-10-16T05:17:53;4.78;;;3.02;;
23082;SDS011;11709;52.420;10.538;2022-10-16T05:21:56;3.85;;;3.05;;
23082;SDS011;11709;52.420;10.538;2022-10-16T05:25:59;6.17;;;2.98;;
23082;SDS011;11709;52.420;10.538;2022-10-16T05:30:02;6.30;;;3.25;;
23082;SDS011;11709;52.420;10.538;2022-10-16T05:34:05;5.65;;;3.17;;
23082;SDS011;11709;52.420;10.538;2022-10-16T05:38:07;6.22;;;3.30;;
23082;SDS011;11709;52.420;10.538;2022-10-16T05:42:10;6.37;;;3.08;;
23082;SDS011;11709;52.420;10.538;2022-10-16T05:46:12;4.00;;;3.47;;
23082;SDS011;11709;52.420;10.538;2022-10-16T05:50:15;3.85;;;2.75;;
23082;SDS011;11709;52.420;10.538;2022-10-16T05:54:18;6.58;;;3.50;;
23082;SDS011;11709;52.420;10.538;2022-10-16T05:58:21;5.97;;;3.40;;
23082;SDS011;11709;52.420;10.538;2022-10-16T06:02:23;4.83;;;3.12;;
23082;SDS011;11709;52.420;10.538;2022-10-16T06:06:26;7.03;;;3.45;;
23082;SDS011;11709;52.420;10.538;2022-10-16T06:10:30;3.25;;;2.95;;
23082;SDS011;11709;52.420;10.538;2022-10-16T06:14:32;4.37;;;2.98;;
23082;SDS011;11709;52.420;10.538;2022-10-16T06:18:35;3.25;;;2.95;;
23082;SDS011;11709;52.420;10.538;2022-10-16T06:22:38;3.52;;;3.02;;
23082;SDS011;11709;52.420;10.538;2022-10-16T06:26:40;6.40;;;3.42;;
23082;SDS011;11709;52.420;10.538;2022-10-16T06:30:43;6.10;;;3.40;;
23082;SDS011;11709;52.420;10.538;2022-10-16T06:34:46;7.70;;;3.55;;
23082;SDS011;11709;52.420;10.538;2022-10-16T06:38:48;5.60;;;3.87;;
23082;SDS011;11709;52.420;10.538;2022-10-16T06:42:51;7.90;;;3.58;;
23082;SDS011;11709;52.420;10.538;2022-10-16T06:51:00;7.55;;;3.60;;
23082;SDS011;11709;52.420;10.538;2022-10-16T06:55:05;7.67;;;3.85;;
23082;SDS011;11709;52.420;10.538;2022-10-16T06:59:08;5.62;;;3.55;;
23082;SDS011;11709;52.420;10.538;2022-10-16T07:03:10;6.47;;;3.37;;
23082;SDS011;11709;52.420;10.538;2022-10-16T07:07:13;9.38;;;3.85;;
23082;SDS011;11709;52.420;10.538;2022-10-16T07:11:16;7.65;;;3.30;;
23082;SDS011;11709;52.420;10.538;2022-10-16T07:15:21;5.03;;;3.12;;
23082;SDS011;11709;52.420;10.538;2022-10-16T07:19:23;5.00;;;3.10;;
23082;SDS011;11709;52.420;10.538;2022-10-16T07:23:26;4.80;;;3.17;;
23082;SDS011;11709;52.420;10.538;2022-10-16T07:27:28;4.08;;;2.75;;
23082;SDS011;11709;52.420;10.538;2022-10-16T07:31:31;4.05;;;2.95;;
23082;SDS011;11709;52.420;10.538;2022-10-16T07:35:34;3.87;;;2.65;;
23082;SDS011;11709;52.420;10.538;2022-10-16T07:39:36;6.03;;;2.37;;
23082;SDS011;11709;52.420;10.538;2022-10-16T07:43:39;5.28;;;2.60;;
23082;SDS011;11709;52.420;10.538;2022-10-16T07:47:41;6.05;;;2.30;;
23082;SDS011;11709;52.420;10.538;2022-10-16T07:51:44;2.77;;;2.08;;
23082;SDS011;11709;52.420;10.538;2022-10-16T07:55:46;3.30;;;1.77;;
23082;SDS011;11709;52.420;10.538;2022-10-16T07:59:49;2.22;;;1.62;;
23082;SDS011;11709;52.420;10.538;2022-10-16T08:03:51;5.33;;;1.62;;
23082;SDS011;11709;52.420;10.538;2022-10-16T08:07:54;7.25;;;3.33;;
23082;SDS011;11709;52.420;10.538;2022-10-16T08:11:57;5.00;;;2.60;;
23082;SDS011;11709;52.420;10.538;2022-10-16T08:15:59;2.70;;;2.42;;
23082;SDS011;11709;52.420;10.538;2022-10-16T08:20:02;4.00;;;1.50;;
23082;SDS011;11709;52.420;10.538;2022-10-16T08:24:05;3.67;;;1.55;;
23082;SDS011;11709;52.420;10.538;2022-10-16T08:28:09;4.08;;;1.40;;
23082;SDS011;11709;52.420;10.538;2022-10-16T08:32:12;4.62;;;1.67;;
23082;SDS011;11709;52.420;10.538;2022-10-16T08:36:15;3.85;;;1.80;;
23082;SDS011;11709;52.420;10.538;2022-10-16T08:40:24;2.77;;;1.72;;
23082;SDS011;11709;52.420;10.538;2022-10-16T08:44:50;5.78;;;1.60;;
23082;SDS011;11709;52.420;10.538;2022-10-16T08:49:05;6.37;;;5.42;;
23082;SDS011;11709;52.420;10.538;2022-10-16T08:53:15;2.20;;;1.57;;
23082;SDS011;11709;52.420;10.538;2022-10-16T08:57:20;1.90;;;1.27;;
23082;SDS011;11709;52.420;10.538;2022-10-16T09:01:27;1.30;;;1.20;;
23082;SDS011;11709;52.420;10.538;2022-10-16T09:23:25;3.05;;;1.60;;
23082;SDS011;11709;52.420;10.538;2022-10-16T09:27:29;4.67;;;1.12;;
23082;SDS011;11709;52.420;10.538;2022-10-16T09:31:32;1.50;;;1.17;;
23082;SDS011;11709;52.420;10.538;2022-10-16T09:39:44;1.07;;;0.98;;
23082;SDS011;11709;52.420;10.538;2022-10-16T09:43:57;2.50;;;1.35;;
23082;SDS011;11709;52.420;10.538;2022-10-16T09:48:17;3.42;;;1.30;;
23082;SDS011;11709;52.420;10.538;2022-10-16T09:52:23;1.60;;;1.10;;
23082;SDS011;11709;52.420;10.538;2022-10-16T09:56:32;1.00;;;0.90;;
23082;SDS011;11709;52.420;10.538;2022-10-16T10:00:39;1.35;;;0.98;;
23082;SDS011;11709;52.420;10.538;2022-10-16T10:04:48;4.05;;;1.50;;
23082;SDS011;11709;52.420;10.538;2022-10-16T10:08:59;1.62;;;1.07;;
23082;SDS011;11709;52.420;10.538;2022-10-16T10:13:15;1.75;;;1.12;;
23082;SDS011;11709;52.420;10.538;2022-10-16T10:17:25;6.78;;;1.25;;
23082;SDS011;11709;52.420;10.538;2022-10-16T10:21:28;1.98;;;1.00;;
23082;SDS011;11709;52.420;10.538;2022-10-16T10:34:45;0.95;;;0.80;;
23082;SDS011;11709;52.420;10.538;2022-10-16T10:38:50;4.22;;;0.80;;
23082;SDS011;11709;52.420;10.538;2022-10-16T10:43:12;3.45;;;0.80;;
23082;SDS011;11709;52.420;10.538;2022-10-16T10:52:13;1.98;;;0.78;;
23082;SDS011;11709;52.420;10.538;2022-10-16T11:05:33;0.40;;;0.40;;
23082;SDS011;11709;52.420;10.538;2022-10-16T11:09:38;2.08;;;1.10;;
23082;SDS011;11709;52.420;10.538;2022-10-16T11:13:54;3.37;;;0.90;;
23082;SDS011;11709;52.420;10.538;2022-10-16T11:18:04;6.10;;;4.28;;
23082;SDS011;11709;52.420;10.538;2022-10-16T11:22:17;4.33;;;3.00;;
23082;SDS011;11709;52.420;10.538;2022-10-16T11:26:28;2.37;;;0.93;;
23082;SDS011;11709;52.420;10.538;2022-10-16T11:30:55;3.15;;;2.40;;
23082;SDS011;11709;52.420;10.538;2022-10-16T11:34:51;3.62;;;1.42;;
23082;SDS011;11709;52.420;10.538;2022-10-16T11:43:24;1.12;;;0.80;;
23082;SDS011;11709;52.420;10.538;2022-10-16T11:47:43;1.55;;;0.98;;
23082;SDS011;11709;52.420;10.538;2022-10-16T11:56:27;2.33;;;0.85;;
23082;SDS011;11709;52.420;10.538;2022-10-16T12:00:37;1.05;;;0.72;;
23082;SDS011;11709;52.420;10.538;2022-10-16T12:04:46;1.98;;;0.90;;
23082;SDS011;11709;52.420;10.538;2022-10-16T12:08:53;1.20;;;0.72;;
23082;SDS011;11709;52.420;10.538;2022-10-16T12:12:59;2.87;;;0.90;;
23082;SDS011;11709;52.420;10.538;2022-10-16T12:17:26;3.58;;;1.15;;
23082;SDS011;11709;52.420;10.538;2022-10-16T12:21:29;0.95;;;0.70;;
23082;SDS011;11709;52.420;10.538;2022-10-16T12:25:31;2.35;;;1.02;;
23082;SDS011;11709;52.420;10.538;2022-10-16T12:29:38;1.83;;;0.80;;
23082;SDS011;11709;52.420;10.538;2022-10-16T12:33:55;3.05;;;0.80;;
23082;SDS011;11709;52.420;10.538;2022-10-16T12:38:18;2.80;;;0.60;;
23082;SDS011;11709;52.420;10.538;2022-10-16T12:46:37;1.50;;;0.60;;
23082;SDS011;11709;52.420;10.538;2022-10-16T12:50:41;1.60;;;0.60;;
23082;SDS011;11709;52.420;10.538;2022-10-16T12:54:44;1.10;;;0.60;;
23082;SDS011;11709;52.420;10.538;2022-10-16T12:59:03;1.52;;;0.47;;
23082;SDS011;11709;52.420;10.538;2022-10-16T13:12:00;2.22;;;0.65;;
23082;SDS011;11709;52.420;10.538;2022-10-16T13:16:21;1.50;;;0.60;;
23082;SDS011;11709;52.420;10.538;2022-10-16T13:20:45;1.12;;;0.60;;
23082;SDS011;11709;52.420;10.538;2022-10-16T13:28:59;0.72;;;0.60;;
23082;SDS011;11709;52.420;10.538;2022-10-16T13:33:05;2.02;;;0.70;;
23082;SDS011;11709;52.420;10.538;2022-10-16T13:37:19;0.62;;;0.60;;
23082;SDS011;11709;52.420;10.538;2022-10-16T13:41:24;0.93;;;0.62;;
23082;SDS011;11709;52.420;10.538;2022-10-16T13:45:27;0.85;;;0.60;;
23082;SDS011;11709;52.420;10.538;2022-10-16T13:49:30;2.60;;;0.57;;
23082;SDS011;11709;52.420;10.538;2022-10-16T13:53:36;1.62;;;0.70;;
23082;SDS011;11709;52.420;10.538;2022-10-16T13:57:38;0.57;;;0.57;;
23082;SDS011;11709;52.420;10.538;2022-10-16T14:01:42;2.12;;;0.50;;
23082;SDS011;11709;52.420;10.538;2022-10-16T14:05:47;1.15;;;0.45;;
23082;SDS011;11709;52.420;10.538;2022-10-16T14:09:51;2.45;;;0.60;;
23082;SDS011;11709;52.420;10.538;2022-10-16T14:13:55;2.05;;;0.62;;
23082;SDS011;11709;52.420;10.538;2022-10-16T14:17:58;2.17;;;0.62;;
23082;SDS011;11709;52.420;10.538;2022-10-16T14:22:02;1.87;;;0.55;;
23082;SDS011;11709;52.420;10.538;2022-10-16T14:30:18;1.15;;;0.62;;
23082;SDS011;11709;52.420;10.538;2022-10-16T14:34:24;0.60;;;0.40;;
23082;SDS011;11709;52.420;10.538;2022-10-16T14:38:37;1.52;;;0.90;;
23082;SDS011;11709;52.420;10.538;2022-10-16T14:42:42;1.67;;;0.85;;
23082;SDS011;11709;52.420;10.538;2022-10-16T14:46:48;2.02;;;0.80;;
23082;SDS011;11709;52.420;10.538;2022-10-16T14:50:51;1.10;;;0.90;;
23082;SDS011;11709;52.420;10.538;2022-10-16T14:54:53;1.12;;;0.60;;
23082;SDS011;11709;52.420;10.538;2022-10-16T14:58:57;2.08;;;0.50;;
23082;SDS011;11709;52.420;10.538;2022-10-16T15:02:59;1.02;;;0.42;;
23082;SDS011;11709;52.420;10.538;2022-10-16T15:07:02;2.22;;;0.62;;
23082;SDS011;11709;52.420;10.538;2022-10-16T15:11:04;1.77;;;1.00;;
23082;SDS011;11709;52.420;10.538;2022-10-16T15:15:56;4.72;;;1.20;;
23082;SDS011;11709;52.420;10.538;2022-10-16T15:19:18;1.60;;;0.50;;
23082;SDS011;11709;52.420;10.538;2022-10-16T15:23:21;1.22;;;0.93;;
23082;SDS011;11709;52.420;10.538;2022-10-16T15:27:25;1.72;;;0.70;;
23082;SDS011;11709;52.420;10.538;2022-10-16T15:31:28;1.37;;;0.53;;
23082;SDS011;11709;52.420;10.538;2022-10-16T15:35:30;1.75;;;0.70;;
23082;SDS011;11709;52.420;10.538;2022-10-16T15:39:33;1.25;;;0.70;;
23082;SDS011;11709;52.420;10.538;2022-10-16T15:43:37;3.25;;;0.95;;
23082;SDS011;11709;52.420;10.538;2022-10-16T15:47:45;3.22;;;0.80;;
23082;SDS011;11709;52.420;10.538;2022-10-16T15:51:44;2.80;;;0.80;;
23082;SDS011;11709;52.420;10.538;2022-10-16T15:55:47;2.02;;;0.82;;
23082;SDS011;11709;52.420;10.538;2022-10-16T15:59:50;1.92;;;0.80;;
23082;SDS011;11709;52.420;10.538;2022-10-16T16:03:53;1.30;;;0.72;;
23082;SDS011;11709;52.420;10.538;2022-10-16T16:07:56;1.67;;;1.10;;
23082;SDS011;11709;52.420;10.538;2022-10-16T16:11:59;2.98;;;1.07;;
23082;SDS011;11709;52.420;10.538;2022-10-16T16:16:01;3.42;;;1.17;;
23082;SDS011;11709;52.420;10.538;2022-10-16T16:20:09;3.22;;;1.30;;
23082;SDS011;11709;52.420;10.538;2022-10-16T16:24:12;8.70;;;3.12;;
23082;SDS011;11709;52.420;10.538;2022-10-16T16:28:14;6.45;;;2.98;;
23082;SDS011;11709;52.420;10.538;2022-10-16T16:32:17;5.65;;;1.30;;
23082;SDS011;11709;52.420;10.538;2022-10-16T16:36:19;2.02;;;1.10;;
23082;SDS011;11709;52.420;10.538;2022-10-16T16:40:22;5.37;;;1.27;;
23082;SDS011;11709;52.420;10.538;2022-10-16T16:44:24;9.68;;;2.00;;
23082;SDS011;11709;52.420;10.538;2022-10-16T16:48:27;2.20;;;0.98;;
23082;SDS011;11709;52.420;10.538;2022-10-16T16:52:30;2.85;;;0.80;;
23082;SDS011;11709;52.420;10.538;2022-10-16T16:56:32;5.20;;;1.20;;
23082;SDS011;11709;52.420;10.538;2022-10-16T17:00:35;0.62;;;0.62;;
23082;SDS011;11709;52.420;10.538;2022-10-16T17:04:38;0.53;;;0.50;;
23082;SDS011;11709;52.420;10.538;2022-10-16T17:08:41;3.75;;;0.85;;
23082;SDS011;11709;52.420;10.538;2022-10-16T17:12:44;2.45;;;0.80;;
23082;SDS011;11709;52.420;10.538;2022-10-16T17:16:46;2.58;;;1.32;;
23082;SDS011;11709;52.420;10.538;2022-10-16T17:20:49;3.65;;;2.08;;
23082;SDS011;11709;52.420;10.538;2022-10-16T17:24:52;10.25;;;4.28;;
23082;SDS011;11709;52.420;10.538;2022-10-16T17:28:56;2.45;;;1.35;;
23082;SDS011;11709;52.420;10.538;2022-10-16T17:33:00;2.67;;;1.00;;
23082;SDS011;11709;52.420;10.538;2022-10-16T17:37:03;9.55;;;1.20;;
23082;SDS011;11709;52.420;10.538;2022-10-16T17:41:19;2.50;;;1.07;;
23082;SDS011;11709;52.420;10.538;2022-10-16T17:45:23;3.72;;;1.20;;
23082;SDS011;11709;52.420;10.538;2022-10-16T17:49:26;1.45;;;1.20;;
23082;SDS011;11709;52.420;10.538;2022-10-16T17:53:29;3.50;;;1.20;;
23082;SDS011;11709;52.420;10.538;2022-10-16T17:57:31;5.28;;;1.42;;
23082;SDS011;11709;52.420;10.538;2022-10-16T18:01:35;2.20;;;1.25;;
23082;SDS011;11709;52.420;10.538;2022-10-16T18:05:40;4.58;;;1.50;;
23082;SDS011;11709;52.420;10.538;2022-10-16T18:09:42;5.85;;;2.77;;
23082;SDS011;11709;52.420;10.538;2022-10-16T18:13:45;4.00;;;2.17;;
23082;SDS011;11709;52.420;10.538;2022-10-16T18:17:48;2.83;;;1.50;;
23082;SDS011;11709;52.420;10.538;2022-10-16T18:21:50;1.95;;;1.32;;
23082;SDS011;11709;52.420;10.538;2022-10-16T18:25:55;6.22;;;1.92;;
23082;SDS011;11709;52.420;10.538;2022-10-16T18:29:58;5.65;;;1.60;;
23082;SDS011;11709;52.420;10.538;2022-10-16T18:34:00;6.40;;;2.22;;
23082;SDS011;11709;52.420;10.538;2022-10-16T18:38:03;5.10;;;1.95;;
23082;SDS011;11709;52.420;10.538;2022-10-16T18:42:05;2.95;;;2.30;;
23082;SDS011;11709;52.420;10.538;2022-10-16T18:46:19;3.95;;;2.10;;
23082;SDS011;11709;52.420;10.538;2022-10-16T18:50:20;2.42;;;1.90;;
23082;SDS011;11709;52.420;10.538;2022-10-16T18:54:23;4.47;;;1.95;;
23082;SDS011;11709;52.420;10.538;2022-10-16T18:58:26;2.75;;;1.52;;
23082;SDS011;11709;52.420;10.538;2022-10-16T19:02:29;4.45;;;1.75;;
23082;SDS011;11709;52.420;10.538;2022-10-16T19:06:35;2.80;;;1.77;;
23082;SDS011;11709;52.420;10.538;2022-10-16T19:10:39;4.70;;;2.02;;
23082;SDS011;11709;52.420;10.538;2022-10-16T19:14:42;3.67;;;1.62;;
23082;SDS011;11709;52.420;10.538;2022-10-16T19:18:44;4.35;;;1.90;;
23082;SDS011;11709;52.420;10.538;2022-10-16T19:22:48;5.08;;;2.25;;
23082;SDS011;11709;52.420;10.538;2022-10-16T19:26:57;4.97;;;2.12;;
23082;SDS011;11709;52.420;10.538;2022-10-16T19:31:00;3.58;;;1.90;;
23082;SDS011;11709;52.420;10.538;2022-10-16T19:35:04;5.33;;;2.37;;
23082;SDS011;11709;52.420;10.538;2022-10-16T19:39:11;4.42;;;3.00;;
23082;SDS011;11709;52.420;10.538;2022-10-16T19:43:14;7.90;;;4.47;;
23082;SDS011;11709;52.420;10.538;2022-10-16T19:47:16;8.63;;;4.37;;
23082;SDS011;11709;52.420;10.538;2022-10-16T19:51:19;8.90;;;4.65;;
23082;SDS011;11709;52.420;10.538;2022-10-16T19:55:22;8.03;;;5.03;;
23082;SDS011;11709;52.420;10.538;2022-10-16T19:59:24;12.23;;;6.85;;
23082;SDS011;11709;52.420;10.538;2022-10-16T20:03:27;9.63;;;6.08;;
23082;SDS011;11709;52.420;10.538;2022-10-16T20:07:29;9.53;;;6.17;;
23082;SDS011;11709;52.420;10.538;2022-10-16T20:11:33;9.83;;;6.22;;
23082;SDS011;11709;52.420;10.538;2022-10-16T20:15:36;12.58;;;6.15;;
23082;SDS011;11709;52.420;10.538;2022-10-16T20:19:39;9.70;;;5.72;;
23082;SDS011;11709;52.420;10.538;2022-10-16T20:23:41;7.97;;;5.22;;
23082;SDS011;11709;52.420;10.538;2022-10-16T20:27:44;9.25;;;6.20;;
23082;SDS011;11709;52.420;10.538;2022-10-16T20:31:47;7.78;;;5.17;;
23082;SDS011;11709;52.420;10.538;2022-10-16T20:35:49;11.63;;;5.08;;
23082;SDS011;11709;52.420;10.538;2022-10-16T20:39:52;6.92;;;4.97;;
23082;SDS011;11709;52.420;10.538;2022-10-16T20:43:54;9.40;;;4.90;;
23082;SDS011;11709;52.420;10.538;2022-10-16T20:47:57;10.85;;;5.50;;
23082;SDS011;11709;52.420;10.538;2022-10-16T20:52:00;11.12;;;5.05;;
23082;SDS011;11709;52.420;10.538;2022-10-16T20:56:02;10.60;;;5.30;;
23082;SDS011;11709;52.420;10.538;2022-10-16T21:00:05;11.68;;;6.00;;
23082;SDS011;11709;52.420;10.538;2022-10-16T21:04:09;8.43;;;5.05;;
23082;SDS011;11709;52.420;10.538;2022-10-16T21:08:11;10.95;;;5.25;;
23082;SDS011;11709;52.420;10.538;2022-10-16T21:12:14;8.70;;;4.58;;
23082;SDS011;11709;52.420;10.538;2022-10-16T21:16:16;12.00;;;3.77;;
23082;SDS011;11709;52.420;10.538;2022-10-16T21:20:19;7.67;;;4.55;;
23082;SDS011;11709;52.420;10.538;2022-10-16T21:24:21;6.37;;;3.90;;
23082;SDS011;11709;52.420;10.538;2022-10-16T21:28:24;7.15;;;3.47;;
23082;SDS011;11709;52.420;10.538;2022-10-16T21:32:26;5.92;;;4.00;;
23082;SDS011;11709;52.420;10.538;2022-10-16T21:36:30;7.08;;;4.25;;
23082;SDS011;11709;52.420;10.538;2022-10-16T21:40:34;8.55;;;4.37;;
23082;SDS011;11709;52.420;10.538;2022-10-16T21:44:37;9.80;;;4.28;;
23082;SDS011;11709;52.420;10.538;2022-10-16T21:48:39;8.73;;;4.00;;
23082;SDS011;11709;52.420;10.538;2022-10-16T21:52:45;4.30;;;3.75;;
23082;SDS011;11709;52.420;10.538;2022-10-16T21:56:47;6.42;;;3.80;;
23082;SDS011;11709;52.420;10.538;2022-10-16T22:00:50;6.78;;;3.12;;
23082;SDS011;11709;52.420;10.538;2022-10-16T22:04:52;6.25;;;2.75;;
23082;SDS011;11709;52.420;10.538;2022-10-16T22:08:56;3.75;;;2.58;;
23082;SDS011;11709;52.420;10.538;2022-10-16T22:13:00;6.90;;;2.50;;
23082;SDS011;11709;52.420;10.538;2022-10-16T22:17:02;4.15;;;2.30;;
23082;SDS011;11709;52.420;10.538;2022-10-16T22:21:09;7.30;;;2.37;;
23082;SDS011;11709;52.420;10.538;2022-10-16T22:25:09;6.95;;;2.83;;
23082;SDS011;11709;52.420;10.538;2022-10-16T22:29:12;3.92;;;3.10;;
23082;SDS011;11709;52.420;10.538;2022-10-16T22:33:15;5.80;;;2.45;;
23082;SDS011;11709;52.420;10.538;2022-10-16T22:37:17;3.80;;;2.37;;
23082;SDS011;11709;52.420;10.538;2022-10-16T22:41:20;2.77;;;2.10;;
23082;SDS011;11709;52.420;10.538;2022-10-16T22:45:24;3.62;;;2.33;;
23082;SDS011;11709;52.420;10.538;2022-10-16T22:49:26;3.52;;;1.82;;
23082;SDS011;11709;52.420;10.538;2022-10-16T22:53:29;4.78;;;1.98;;
23082;SDS011;11709;52.420;10.538;2022-10-16T22:57:32;4.00;;;1.77;;
23082;SDS011;11709;52.420;10.538;2022-10-16T23:01:36;2.50;;;1.98;;
23082;SDS011;11709;52.420;10.538;2022-10-16T23:05:41;3.80;;;1.98;;
23082;SDS011;11709;52.420;10.538;2022-10-16T23:09:44;3.62;;;1.85;;
23082;SDS011;11709;52.420;10.538;2022-10-16T23:13:46;3.27;;;1.82;;
23082;SDS011;11709;52.420;10.538;2022-10-16T23:17:49;5.20;;;1.85;;
23082;SDS011;11709;52.420;10.538;2022-10-16T23:21:52;4.12;;;1.98;;
23082;SDS011;11709;52.420;10.538;2022-10-16T23:25:54;2.33;;;2.05;;
23082;SDS011;11709;52.420;10.538;2022-10-16T23:29:57;8.10;;;2.25;;
23082;SDS011;11709;52.420;10.538;2022-10-16T23:33:59;7.97;;;2.40;;
23082;SDS011;11709;52.420;10.538;2022-10-16T23:38:02;4.87;;;1.95;;
23082;SDS011;11709;52.420;10.538;2022-10-16T23:42:04;6.45;;;2.27;;
23082;SDS011;11709;52.420;10.538;2022-10-16T23:46:07;3.55;;;1.85;;
23082;SDS011;11709;52.420;10.538;2022-10-16T23:50:11;3.35;;;2.08;;
23082;SDS011;11709;52.420;10.538;2022-10-16T23:54:13;2.80;;;1.75;;
23082;SDS011;11709;52.420;10.538;2022-10-16T23:58:16;4.25;;;1.90;;
